Flight Track Log - Related Links

Times and Time Zones

All times are in EDT time to prevent confusion due to time zone crossing. See the SLI2072 flight status page for this flight to view local times or setup timezone preferences in your user account.

Time Position Orientation Groundspeed Altitude Reporting Facility
EDT Latitude Longitude Course Direction KTS MPH feet Rate Location/Type
Fri 05:28:00 PM 20.0148 -100.3511 296° West  Level Estimated
Fri 05:29:00 PM 20.0626 -100.4581 295° West  Level Estimated
Fri 05:30:00 PM 20.1103 -100.5652 295° West  Level Estimated
Fri 05:31:00 PM 20.1579 -100.6723 295° West  Level Estimated
Fri 05:32:00 PM 20.2055 -100.7795 295° West  Level Estimated
Fri 05:33:00 PM 20.2531 -100.8868 295° West  Level Estimated
Fri 05:34:00 PM 20.3006 -100.9941 295° West  Level Estimated
Fri 05:35:00 PM 20.3479 -101.1015 295° West  Level Estimated
Fri 05:36:00 PM 20.3953 -101.2090 295° West  Level Estimated
Fri 05:37:00 PM 20.4426 -101.3165 295° West  Level Estimated
Fri 05:38:00 PM 20.4898 -101.4241 295° West  Level Estimated
Fri 05:39:00 PM 20.5369 -101.5318 295° West  Level Estimated
Fri 05:40:00 PM 20.5840 -101.6395 295° West  Level Estimated
Fri 05:41:00 PM 20.6310 -101.7473 295° West  Level Estimated
Fri 05:42:00 PM 20.6779 -101.8552 295° West  Level Estimated
Fri 05:43:00 PM 20.7248 -101.9631 295° West  Level Estimated
Fri 05:44:00 PM 20.7716 -102.0711 295° West  Level Estimated
Fri 05:45:00 PM 20.8183 -102.1792 295° West  Level Estimated
Fri 05:46:00 PM 20.8650 -102.2873 295° West  Level Estimated
Fri 05:47:00 PM 20.9116 -102.3955 295° West  Level Estimated
Fri 05:48:00 PM 20.9581 -102.5038 295° West  Level Estimated
Fri 05:49:00 PM 21.0046 -102.6121 295° West  Level Estimated
Fri 05:50:00 PM 21.0510 -102.7205 295° West  Level Estimated
Fri 05:51:00 PM 21.0973 -102.8290 295° West  Level Estimated
Fri 05:52:00 PM 21.1436 -102.9375 295° West  Level Estimated
Fri 05:53:00 PM 21.1898 -103.0461 295° West  Level Estimated
Fri 05:54:00 PM 21.2359 -103.1548 294° West  Level Estimated
Fri 05:55:00 PM 21.2820 -103.2635 294° West  Level Estimated
Fri 05:56:00 PM 21.3279 -103.3723 294° West  Level Estimated
Fri 05:57:00 PM 21.3738 -103.4812 294° West  Level Estimated
Fri 05:58:00 PM 21.4197 -103.5901 294° West  Level Estimated
Fri 05:59:00 PM 21.4655 -103.6991 294° West  Level Estimated
Fri 06:00:00 PM 21.5112 -103.8082 294° West  Level Estimated
Fri 06:01:00 PM 21.5568 -103.9174 294° West  Level Estimated
Fri 06:02:00 PM 21.6024 -104.0266 294° West  Level Estimated
Fri 06:03:00 PM 21.6478 -104.1358 294° West  Level Estimated
Fri 06:04:00 PM 21.6933 -104.2452 294° West  Level Estimated
Fri 06:05:00 PM 21.7386 -104.3546 294° West  Level Estimated
Fri 06:06:00 PM 21.7839 -104.4641 294° West  Level Estimated
Fri 06:07:00 PM 21.8291 -104.5737 294° West  Level Estimated
Fri 06:08:00 PM 21.8742 -104.6833 294° West  Level Estimated
Fri 06:09:00 PM 21.9192 -104.7930 294° West  Level Estimated
Fri 06:10:00 PM 21.9642 -104.9028 294° West  Level Estimated
Fri 06:11:00 PM 22.0091 -105.0126 294° West  Level Estimated
Fri 06:12:00 PM 22.0540 -105.1225 294° West  Level Estimated
Fri 06:13:00 PM 22.0987 -105.2325 294° West  Level Estimated
Fri 06:14:00 PM 22.1434 -105.3426 294° West  Level Estimated
Fri 06:15:00 PM 22.1880 -105.4527 294° West  Level Estimated
Fri 06:16:00 PM 22.2326 -105.5629 294° West  Level Estimated
Fri 06:17:00 PM 22.2770 -105.6731 294° West  Level Estimated
Fri 06:18:00 PM 22.3214 -105.7834 294° West  Level Estimated
Fri 06:19:00 PM 22.3657 -105.8939 293° West  Level Estimated
Fri 06:20:00 PM 22.4100 -106.0043 293° West  Level Estimated
Fri 06:21:00 PM 22.4541 -106.1149 293° West  Level Estimated
Fri 06:22:00 PM 22.4982 -106.2255 293° West  Level Estimated
Fri 06:23:00 PM 22.5423 -106.3362 293° West  Level Estimated
Fri 06:24:00 PM 22.5862 -106.4469 293° West  Level Estimated
Fri 06:25:00 PM 22.6301 -106.5577 293° West  Level Estimated
Fri 06:26:00 PM 22.6738 -106.6686 293° West  Level Estimated
Fri 06:27:00 PM 22.7176 -106.7796 293° West  Level Estimated
Fri 06:28:00 PM 22.7612 -106.8906 293° West  Level Estimated
Fri 06:29:00 PM 22.8048 -107.0017 293° West  Level Estimated
Fri 06:30:00 PM 22.8482 -107.1129 293° West  Level Estimated
Fri 06:31:00 PM 22.8916 -107.2241 293° West  Level Estimated
Fri 06:32:00 PM 22.9350 -107.3354 293° West  Level Estimated
Fri 06:33:00 PM 22.9782 -107.4468 293° West  Level Estimated
Fri 06:34:00 PM 23.0214 -107.5583 293° West  Level Estimated
Fri 06:35:00 PM 23.0645 -107.6698 293° West  Level Estimated
Fri 06:36:00 PM 23.1075 -107.7814 293° West  Level Estimated
Fri 06:37:00 PM 23.1504 -107.8931 293° West  Level Estimated
Fri 06:38:00 PM 23.1933 -108.0048 293° West  Level Estimated
Fri 06:39:00 PM 23.2361 -108.1166 293° West  Level Estimated
Fri 06:40:00 PM 23.2788 -108.2285 293° West  Level Estimated
Fri 06:41:00 PM 23.3214 -108.3405 293° West  Level Estimated
Fri 06:42:00 PM 23.3639 -108.4525 292° West  Level Estimated
Fri 06:43:00 PM 23.4064 -108.5646 292° West  Level Estimated
Fri 06:44:00 PM 23.4488 -108.6768 292° West  Level Estimated
Fri 06:45:00 PM 23.4911 -108.7890 292° West  Level Estimated
Fri 06:46:00 PM 23.5333 -108.9014 292° West  Level Estimated
Fri 06:47:00 PM 23.5754 -109.0137 292° West  Level Estimated
Fri 06:48:00 PM 23.6175 -109.1262 292° West  Level Estimated
Fri 06:49:00 PM 23.6595 -109.2387 292° West  Level Estimated
Fri 06:50:00 PM 23.7014 -109.3513 292° West  Level Estimated
Fri 06:51:00 PM 23.7432 -109.4640 292° West  Level Estimated
Fri 06:52:00 PM 23.7849 -109.5768 292° West  Level Estimated
Fri 06:53:00 PM 23.8265 -109.6896 292° West  Level Estimated
Fri 06:54:00 PM 23.8681 -109.8025 292° West  Level Estimated
Fri 06:55:00 PM 23.9096 -109.9155 292° West  Level Estimated
Fri 06:56:00 PM 23.9510 -110.0285 292° West  Level Estimated
Fri 06:57:00 PM 23.9923 -110.1416 292° West  Level Estimated
Fri 06:58:00 PM 24.0336 -110.2548 292° West  Level Estimated
Fri 06:59:00 PM 24.0727 -110.3625 292° West  Level Estimated
Fri 07:00:00 PM 24.0727 -110.3625 49° Northeast  Level Estimated
Fri 07:01:00 PM 24.0727 -110.3625 49° Northeast  Level Estimated
Fri 07:02:00 PM 24.0727 -110.3625 49° Northeast  Level Estimated
Fri 07:03:00 PM 24.0727 -110.3625 49° Northeast  Level Estimated
Fri 07:04:00 PM 24.0727 -110.3625 49° Northeast  Level Estimated
Fri 07:05:00 PM 24.0727 -110.3625 49° Northeast  Level Estimated
Fri 07:06:00 PM 24.0727 -110.3625 49° Northeast  Level Estimated
Fri 07:07:00 PM 24.0727 -110.3625 49° Northeast  Level Estimated
Fri 07:08:00 PM 24.0727 -110.3625 49° Northeast  Level Estimated
Fri 07:09:00 PM 24.0727 -110.3625 49° Northeast  Level Estimated
Fri 07:10:00 PM 24.0727 -110.3625 49° Northeast  Level Estimated
Fri 07:11:00 PM 24.0727 -110.3625 49° Northeast  Level Estimated
Fri 07:12:00 PM 24.0727 -110.3625 49° Northeast  Level Estimated
Fri 07:13:00 PM 24.0727 -110.3625 49° Northeast  Level Estimated
Fri 07:14:00 PM 24.0727 -110.3625 49° Northeast  Level Estimated
Fri 07:15:00 PM 24.0727 -110.3625 49° Northeast  Level Estimated

Login

Don't have an account? Register now (free) for customized features, flight alerts, and more!